createdAt,value
2018-11-13T00:01:06.854Z,6.17
2018-11-13T00:03:36.007Z,6.12
2018-11-13T00:06:05.044Z,6.07
2018-11-13T00:08:34.504Z,6.08
2018-11-13T00:11:03.658Z,6.05
2018-11-13T00:13:32.768Z,6.04
2018-11-13T00:16:02.246Z,5.97
2018-11-13T00:18:31.335Z,5.91
2018-11-13T00:21:00.466Z,6.00
2018-11-13T00:23:29.763Z,5.98
2018-11-13T00:25:58.822Z,5.95
2018-11-13T00:28:27.925Z,5.91
2018-11-13T00:30:57.438Z,5.92
2018-11-13T00:33:26.500Z,5.86
2018-11-13T00:35:55.683Z,5.82
2018-11-13T00:38:24.938Z,5.81
2018-11-13T00:40:54.200Z,5.82
2018-11-13T00:43:23.246Z,5.83
2018-11-13T00:45:52.365Z,5.83
2018-11-13T00:48:21.767Z,5.91
2018-11-13T00:50:51.020Z,5.89
2018-11-13T00:53:20.335Z,5.88
2018-11-13T00:55:49.642Z,5.93
2018-11-13T00:58:19.367Z,5.93
2018-11-13T01:00:48.987Z,5.94
2018-11-13T01:03:18.086Z,5.94
2018-11-13T01:05:47.316Z,5.90
2018-11-13T01:08:16.829Z,5.87
2018-11-13T01:10:45.978Z,5.83
2018-11-13T01:13:15.021Z,5.83
2018-11-13T01:15:44.202Z,5.82
2018-11-13T01:18:13.435Z,5.83
2018-11-13T01:20:42.491Z,5.91
2018-11-13T01:23:12.028Z,6.09
2018-11-13T01:25:41.021Z,6.11
2018-11-13T01:28:10.150Z,6.12
2018-11-13T01:30:39.621Z,6.01
2018-11-13T01:33:08.836Z,5.99
2018-11-13T01:35:37.955Z,6.02
2018-11-13T01:38:07.525Z,6.03
2018-11-13T01:40:36.590Z,6.06
2018-11-13T01:43:05.819Z,6.08
2018-11-13T01:45:34.884Z,6.08
2018-11-13T01:48:03.992Z,6.15
2018-11-13T01:50:33.103Z,6.21
2018-11-13T01:53:02.341Z,6.23
2018-11-13T01:55:31.607Z,6.32
2018-11-13T01:58:00.758Z,6.37
2018-11-13T02:00:29.929Z,6.38
2018-11-13T02:02:59.213Z,6.40
2018-11-13T02:05:28.521Z,6.44
2018-11-13T02:07:58.028Z,6.45
2018-11-13T02:10:27.319Z,6.42
2018-11-13T02:12:56.711Z,6.39
2018-11-13T02:15:26.007Z,6.34
2018-11-13T02:17:55.177Z,6.30
2018-11-13T02:20:24.177Z,6.28
2018-11-13T02:22:53.710Z,6.26
2018-11-13T02:25:22.877Z,6.25
2018-11-13T02:27:52.188Z,6.25
2018-11-13T02:30:22.729Z,6.26
2018-11-13T02:32:51.987Z,6.28
2018-11-13T02:35:21.365Z,6.31
2018-11-13T02:37:51.126Z,6.34
2018-11-13T02:40:20.272Z,6.36
2018-11-13T02:42:49.316Z,6.38
2018-11-13T02:45:19.843Z,6.42
2018-11-13T02:47:48.905Z,6.47
2018-11-13T02:50:19.906Z,6.51
2018-11-13T02:52:49.076Z,6.49
2018-11-13T02:55:18.412Z,6.51
2018-11-13T02:57:47.992Z,6.52
2018-11-13T03:00:19.355Z,6.52
2018-11-13T03:02:48.568Z,6.48
2018-11-13T03:05:18.919Z,6.48
2018-11-13T03:07:48.057Z,6.47
2018-11-13T03:10:18.301Z,6.40
2018-11-13T03:12:47.612Z,6.37
2018-11-13T03:15:18.164Z,6.31
2018-11-13T03:17:47.217Z,6.26
2018-11-13T03:20:17.594Z,6.22
2018-11-13T03:22:47.492Z,6.19
2018-11-13T03:25:17.877Z,6.21
2018-11-13T03:27:47.528Z,6.25
2018-11-13T03:30:19.994Z,6.22
2018-11-13T03:32:49.260Z,6.23
2018-11-13T03:35:18.534Z,6.20
2018-11-13T03:37:47.706Z,6.22
2018-11-13T03:40:17.186Z,6.25
2018-11-13T03:42:47.186Z,6.23
2018-11-13T03:45:16.768Z,6.24
2018-11-13T03:47:46.394Z,6.27
2018-11-13T03:50:16.849Z,6.27
2018-11-13T03:52:46.537Z,6.24
2018-11-13T03:55:16.320Z,6.19
2018-11-13T03:57:46.215Z,6.21
2018-11-13T04:00:16.889Z,6.27
2018-11-13T04:02:46.691Z,6.34
2018-11-13T04:05:16.845Z,6.31
2018-11-13T04:07:48.236Z,6.38
2018-11-13T04:10:18.484Z,6.41
2018-11-13T04:12:47.632Z,6.49
2018-11-13T04:15:18.175Z,6.51
2018-11-13T04:17:47.351Z,6.46
2018-11-13T04:20:17.720Z,6.37
2018-11-13T04:22:47.237Z,6.40
2018-11-13T04:25:16.400Z,6.53
2018-11-13T04:27:45.531Z,6.53
2018-11-13T04:30:16.532Z,6.59
2018-11-13T04:32:45.645Z,6.58
2018-11-13T04:35:16.285Z,6.59
2018-11-13T04:37:45.542Z,6.52
2018-11-13T04:40:16.928Z,6.58
2018-11-13T04:42:47.286Z,6.62
2018-11-13T04:45:18.507Z,6.64
2018-11-13T04:47:48.377Z,6.68
2018-11-13T04:50:18.686Z,6.68
2018-11-13T04:52:47.916Z,6.70
2018-11-13T04:55:17.595Z,6.71
2018-11-13T04:57:48.290Z,6.71
2018-11-13T05:00:19.006Z,6.76
2018-11-13T05:02:48.415Z,6.83
2018-11-13T05:05:18.291Z,6.85
2018-11-13T05:07:51.744Z,6.90
2018-11-13T05:10:21.013Z,6.91
2018-11-13T05:12:50.510Z,6.87
2018-11-13T05:15:20.045Z,6.88
2018-11-13T05:17:49.295Z,6.83
2018-11-13T05:20:18.717Z,6.84
2018-11-13T05:22:48.021Z,6.82
2018-11-13T05:25:18.773Z,6.82
2018-11-13T05:27:48.174Z,6.84
2018-11-13T05:30:22.351Z,6.87
2018-11-13T05:32:52.095Z,6.87
2018-11-13T05:35:22.042Z,6.88
2018-11-13T05:37:51.242Z,6.97
2018-11-13T05:40:24.746Z,7.04
2018-11-13T05:42:54.031Z,7.10
2018-11-13T05:45:24.447Z,7.17
2018-11-13T05:47:54.093Z,7.08
2018-11-13T05:50:23.328Z,7.18
2018-11-13T05:52:53.572Z,7.27
2018-11-13T05:55:28.006Z,7.32
2018-11-13T05:57:57.349Z,7.43
2018-11-13T06:00:34.770Z,7.48
2018-11-13T06:03:04.597Z,7.43
2018-11-13T06:05:34.331Z,7.39
2018-11-13T06:08:03.755Z,7.48
2018-11-13T06:10:33.007Z,7.52
2018-11-13T06:13:02.207Z,7.51
2018-11-13T06:15:31.249Z,7.49
2018-11-13T06:18:00.345Z,7.49
2018-11-13T06:20:29.733Z,7.50
2018-11-13T06:22:59.023Z,7.56
2018-11-13T06:25:28.294Z,7.54
2018-11-13T06:27:57.867Z,7.56
2018-11-13T06:30:27.295Z,7.58
2018-11-13T06:32:56.387Z,7.58
2018-11-13T06:35:25.855Z,7.60
2018-11-13T06:37:55.068Z,7.62
2018-11-13T06:40:25.306Z,7.69
2018-11-13T06:42:54.568Z,7.72
2018-11-13T06:45:24.197Z,7.63
2018-11-13T06:47:53.606Z,7.68
2018-11-13T06:50:22.969Z,7.78
2018-11-13T06:52:52.272Z,7.83
2018-11-13T06:55:25.375Z,7.94
2018-11-13T06:57:54.457Z,8.04
2018-11-13T07:00:23.536Z,8.13
2018-11-13T07:02:52.829Z,8.23
2018-11-13T07:05:21.932Z,8.27
2018-11-13T07:07:50.930Z,8.35
2018-11-13T07:10:23.176Z,8.46
2018-11-13T07:12:53.854Z,8.54
2018-11-13T07:15:24.426Z,8.63
2018-11-13T07:17:55.195Z,8.66
2018-11-13T07:20:25.941Z,8.67
2018-11-13T07:22:55.257Z,8.62
2018-11-13T07:25:25.337Z,8.77
2018-11-13T07:27:54.907Z,8.93
2018-11-13T07:30:24.721Z,9.07
2018-11-13T07:32:54.107Z,9.28
2018-11-13T07:35:23.805Z,9.53
2018-11-13T07:37:55.896Z,9.76
2018-11-13T07:40:25.071Z,9.91
2018-11-13T07:42:54.550Z,9.96
2018-11-13T07:45:23.764Z,9.93
2018-11-13T07:47:53.478Z,10.10
2018-11-13T07:50:22.509Z,10.19
2018-11-13T07:54:21.518Z,10.30
2018-11-13T07:56:50.684Z,10.52
2018-11-13T07:59:19.811Z,10.59
2018-11-13T08:01:49.148Z,10.72
2018-11-13T08:04:18.478Z,10.87
2018-11-13T08:06:47.862Z,10.95
2018-11-13T08:09:17.391Z,11.07
2018-11-13T08:11:46.583Z,11.01
2018-11-13T08:14:15.807Z,11.16
2018-11-13T08:16:44.992Z,11.28
2018-11-13T08:19:14.093Z,10.96
2018-11-13T08:21:43.307Z,11.29
2018-11-13T08:24:12.711Z,11.40
2018-11-13T08:26:42.061Z,11.63
2018-11-13T08:29:11.165Z,11.74
2018-11-13T08:31:40.505Z,11.85
2018-11-13T08:34:10.136Z,12.02
2018-11-13T08:36:39.266Z,12.04
2018-11-13T08:39:11.349Z,12.25
2018-11-13T08:41:40.530Z,12.32
2018-11-13T08:44:10.428Z,12.39
2018-11-13T08:46:39.660Z,12.35
2018-11-13T08:49:08.813Z,12.49
2018-11-13T08:51:37.789Z,12.58
2018-11-13T08:54:07.346Z,12.62
2018-11-13T08:56:36.449Z,12.64
2018-11-13T08:59:05.802Z,12.83
2018-11-13T09:01:35.233Z,12.98
2018-11-13T09:04:04.307Z,13.15
2018-11-13T09:06:33.482Z,13.36
2018-11-13T09:09:03.336Z,13.06
2018-11-13T09:11:32.547Z,13.07
2018-11-13T09:14:01.776Z,13.25
2018-11-13T09:16:31.338Z,13.62
2018-11-13T09:19:00.709Z,13.89
2018-11-13T09:21:29.961Z,14.14
2018-11-13T09:23:59.326Z,14.07
2018-11-13T09:26:28.443Z,13.99
2018-11-13T09:28:57.480Z,13.37
2018-11-13T09:31:27.052Z,13.37
2018-11-13T09:33:56.118Z,13.77
2018-11-13T09:36:25.266Z,13.31
2018-11-13T09:38:54.906Z,13.34
2018-11-13T09:41:24.083Z,13.16
2018-11-13T09:43:53.305Z,13.39
2018-11-13T09:46:22.517Z,12.91
2018-11-13T09:48:51.723Z,13.31
2018-11-13T09:51:20.709Z,13.79
2018-11-13T09:53:50.004Z,13.83
2018-11-13T09:56:19.122Z,13.69
2018-11-13T09:58:48.389Z,13.76
2018-11-13T10:01:19.060Z,13.59
2018-11-13T10:03:49.453Z,13.99
2018-11-13T10:06:19.818Z,14.18
2018-11-13T10:08:49.179Z,14.20
2018-11-13T10:11:19.932Z,13.93
2018-11-13T10:13:51.696Z,13.94
2018-11-13T10:16:21.011Z,14.03
2018-11-13T10:18:50.167Z,13.72
2018-11-13T10:21:19.587Z,13.43
2018-11-13T10:23:48.854Z,13.62
2018-11-13T10:26:18.381Z,13.96
2018-11-13T10:28:47.457Z,13.41
2018-11-13T10:31:17.046Z,13.54
2018-11-13T10:33:46.280Z,14.11
2018-11-13T10:36:15.502Z,14.29
2018-11-13T10:38:45.105Z,13.60
2018-11-13T10:41:14.430Z,13.53
2018-11-13T10:43:43.688Z,13.53
2018-11-13T10:46:13.572Z,13.46
2018-11-13T10:48:42.874Z,14.06
2018-11-13T10:51:11.993Z,14.00
2018-11-13T10:53:41.126Z,13.92
2018-11-13T10:56:10.681Z,13.98
2018-11-13T10:58:39.924Z,14.30
2018-11-13T11:01:14.407Z,14.66
2018-11-13T11:03:47.472Z,14.92
2018-11-13T11:06:17.025Z,14.86
2018-11-13T11:08:46.134Z,14.74
2018-11-13T11:11:15.326Z,14.06
2018-11-13T11:13:44.561Z,13.94
2018-11-13T11:16:13.427Z,14.47
2018-11-13T11:18:42.706Z,14.92
2018-11-13T11:21:11.859Z,15.06
2018-11-13T11:23:40.966Z,15.14
2018-11-13T11:26:10.464Z,14.91
2018-11-13T11:28:39.943Z,15.19
2018-11-13T11:31:09.208Z,15.33
2018-11-13T11:33:38.384Z,15.34
2018-11-13T11:36:07.427Z,15.48
2018-11-13T11:38:36.593Z,15.76
2018-11-13T11:41:05.844Z,15.98
2018-11-13T11:43:35.039Z,15.93
2018-11-13T11:46:04.318Z,15.95
2018-11-13T11:48:33.505Z,15.89
2018-11-13T11:51:02.807Z,15.68
2018-11-13T11:53:31.799Z,14.95
2018-11-13T11:56:00.988Z,14.77
2018-11-13T11:58:30.191Z,14.40
2018-11-13T12:00:59.495Z,14.59
2018-11-13T12:03:28.749Z,14.79
2018-11-13T12:05:58.155Z,14.56
2018-11-13T12:08:27.233Z,14.83
2018-11-13T12:10:56.449Z,14.95
2018-11-13T12:13:25.724Z,14.71
2018-11-13T12:15:54.945Z,14.64
2018-11-13T12:18:24.023Z,14.32
2018-11-13T12:20:53.161Z,14.05
2018-11-13T12:23:22.297Z,14.24
2018-11-13T12:25:51.687Z,14.65
2018-11-13T12:28:21.225Z,14.80
2018-11-13T12:30:50.281Z,14.89
2018-11-13T12:33:19.543Z,14.26
2018-11-13T12:35:48.900Z,14.42
2018-11-13T12:38:18.069Z,14.64
2018-11-13T12:40:47.363Z,14.81
2018-11-13T12:43:17.011Z,14.33
2018-11-13T12:45:46.046Z,14.53
2018-11-13T12:48:15.318Z,15.02
2018-11-13T12:50:49.716Z,14.76
2018-11-13T12:53:18.885Z,14.94
2018-11-13T12:55:48.225Z,15.14
2018-11-13T12:58:17.377Z,15.24
2018-11-13T13:00:46.617Z,14.91
2018-11-13T13:03:15.612Z,15.06
2018-11-13T13:05:45.176Z,15.15
2018-11-13T13:08:14.198Z,15.21
2018-11-13T13:10:43.603Z,14.97
2018-11-13T13:13:12.855Z,14.38
2018-11-13T13:15:41.965Z,14.09
2018-11-13T13:18:11.131Z,14.15
2018-11-13T13:20:40.754Z,14.18
2018-11-13T13:23:09.969Z,14.11
2018-11-13T13:25:39.213Z,13.84
2018-11-13T13:28:08.676Z,14.09
2018-11-13T13:30:37.746Z,14.26
2018-11-13T13:33:06.913Z,14.26
2018-11-13T13:35:42.430Z,14.05
2018-11-13T13:38:12.064Z,13.96
2018-11-13T13:40:42.251Z,13.92
2018-11-13T13:43:12.475Z,14.01
2018-11-13T13:45:42.352Z,13.83
2018-11-13T13:48:11.337Z,13.74
2018-11-13T13:50:40.939Z,13.73
2018-11-13T13:53:11.088Z,13.68
2018-11-13T13:55:40.410Z,13.59
2018-11-13T13:58:09.916Z,13.63
2018-11-13T14:00:39.342Z,13.64
2018-11-13T14:03:10.465Z,13.71
2018-11-13T14:05:40.053Z,13.70
2018-11-13T14:08:10.291Z,13.72
2018-11-13T14:10:39.358Z,13.57
2018-11-13T14:13:08.589Z,13.54
2018-11-13T14:15:38.015Z,13.28
2018-11-13T14:18:07.161Z,13.27
2018-11-13T14:20:36.494Z,13.23
2018-11-13T14:23:05.831Z,13.22
2018-11-13T14:25:35.025Z,13.23
2018-11-13T14:28:04.179Z,13.12
2018-11-13T14:30:34.614Z,13.11
2018-11-13T14:33:06.920Z,13.02
2018-11-13T14:35:36.383Z,13.06
2018-11-13T14:38:05.703Z,12.97
2018-11-13T14:40:38.355Z,12.88
2018-11-13T14:43:07.765Z,12.81
2018-11-13T14:45:37.026Z,12.71
2018-11-13T14:48:06.781Z,12.71
2018-11-13T14:50:36.659Z,12.63
2018-11-13T14:53:06.724Z,12.52
2018-11-13T14:55:37.380Z,12.53
2018-11-13T14:58:07.960Z,12.48
2018-11-13T15:00:38.253Z,12.43
2018-11-13T15:03:08.698Z,12.37
2018-11-13T15:05:38.275Z,12.34
2018-11-13T15:08:08.548Z,12.34
2018-11-13T15:10:40.156Z,12.24
2018-11-13T15:13:09.785Z,12.22
2018-11-13T15:15:38.947Z,12.14
2018-11-13T15:18:08.639Z,12.17
2018-11-13T15:20:38.150Z,12.21
2018-11-13T15:23:08.272Z,12.09
2018-11-13T15:25:37.464Z,11.93
2018-11-13T15:28:07.683Z,11.94
2018-11-13T15:30:38.200Z,11.82
2018-11-13T15:33:09.887Z,11.76
2018-11-13T15:35:39.444Z,11.68
2018-11-13T15:38:09.016Z,11.70
2018-11-13T15:40:38.357Z,11.69
2018-11-13T15:43:08.175Z,11.68
2018-11-13T15:45:37.298Z,11.66
2018-11-13T15:48:08.199Z,11.68
2018-11-13T15:50:37.984Z,11.61
2018-11-13T15:53:08.723Z,11.62
2018-11-13T15:55:37.866Z,11.59
2018-11-13T15:58:07.599Z,11.54
2018-11-13T16:00:38.213Z,11.49
2018-11-13T16:03:11.891Z,11.49
2018-11-13T16:05:44.539Z,11.41
2018-11-13T16:08:13.952Z,11.40
2018-11-13T16:10:43.163Z,11.26
2018-11-13T16:13:12.784Z,11.12
2018-11-13T16:15:42.677Z,11.02
2018-11-13T16:18:13.693Z,10.97
2018-11-13T16:20:42.756Z,10.85
2018-11-13T16:23:11.890Z,10.79
2018-11-13T16:25:41.182Z,10.80
2018-11-13T16:28:10.294Z,10.79
2018-11-13T16:30:40.123Z,10.73
2018-11-13T16:33:09.631Z,10.68
2018-11-13T16:35:38.817Z,10.60
2018-11-13T16:38:09.815Z,10.53
2018-11-13T16:40:38.827Z,10.39
2018-11-13T16:43:08.074Z,10.35
2018-11-13T16:45:37.265Z,10.39
2018-11-13T16:48:07.394Z,10.30
2018-11-13T16:50:39.063Z,10.17
2018-11-13T16:53:08.309Z,10.18
2018-11-13T16:55:42.614Z,10.14
2018-11-13T16:58:13.224Z,10.10
2018-11-13T17:00:44.703Z,9.99
2018-11-13T17:03:13.793Z,9.91
2018-11-13T17:05:42.970Z,9.79
2018-11-13T17:08:12.280Z,9.74
2018-11-13T17:10:42.683Z,9.69
2018-11-13T17:13:11.854Z,9.75
2018-11-13T17:15:41.133Z,9.79
2018-11-13T17:18:10.413Z,9.72
2018-11-13T17:20:39.691Z,9.68
2018-11-13T17:23:09.210Z,9.67
2018-11-13T17:25:39.381Z,9.70
2018-11-13T17:28:09.011Z,9.65
2018-11-13T17:30:38.622Z,9.62
2018-11-13T17:33:09.271Z,9.58
2018-11-13T17:35:38.832Z,9.62
2018-11-13T17:38:08.056Z,9.62
2018-11-13T17:40:38.078Z,9.68
2018-11-13T17:43:08.356Z,9.70
2018-11-13T17:45:40.052Z,9.73
2018-11-13T17:48:10.552Z,9.66
2018-11-13T17:50:41.293Z,9.66
2018-11-13T17:53:11.224Z,9.62
2018-11-13T17:55:41.302Z,9.63
2018-11-13T17:58:12.718Z,9.60
2018-11-13T18:00:43.222Z,9.57
2018-11-13T18:03:13.832Z,9.58
2018-11-13T18:05:43.790Z,9.53
2018-11-13T18:08:13.700Z,9.45
2018-11-13T18:10:45.009Z,9.45
2018-11-13T18:13:14.582Z,9.47
2018-11-13T18:15:43.903Z,9.64
2018-11-13T18:18:13.165Z,9.72
2018-11-13T18:20:43.215Z,9.80
2018-11-13T18:23:12.451Z,9.92
2018-11-13T18:25:41.818Z,9.96
2018-11-13T18:28:11.303Z,10.03
2018-11-13T18:30:40.767Z,10.04
2018-11-13T18:33:10.878Z,10.05
2018-11-13T18:35:40.895Z,10.01
2018-11-13T18:38:13.722Z,10.01
2018-11-13T18:40:43.502Z,10.09
2018-11-13T18:43:12.954Z,10.11
2018-11-13T18:45:43.326Z,10.11
2018-11-13T18:48:12.695Z,10.09
2018-11-13T18:50:43.839Z,9.96
2018-11-13T18:53:13.199Z,10.08
2018-11-13T18:55:42.626Z,10.13
2018-11-13T18:58:11.910Z,10.26
2018-11-13T19:00:41.813Z,10.31
2018-11-13T19:03:16.053Z,10.34
2018-11-13T19:05:47.744Z,10.35
2018-11-13T19:08:17.584Z,10.36
2018-11-13T19:10:48.299Z,10.40
2018-11-13T19:13:32.390Z,10.41
2018-11-13T19:16:05.603Z,10.41
2018-11-13T19:18:35.317Z,10.42
2018-11-13T19:21:04.897Z,10.42
2018-11-13T19:23:34.353Z,10.37
2018-11-13T19:26:03.935Z,10.37
2018-11-13T19:28:33.583Z,10.40
2018-11-13T19:31:03.148Z,10.39
2018-11-13T19:33:32.997Z,10.32
2018-11-13T19:36:02.523Z,10.32
2018-11-13T19:38:31.819Z,10.27
2018-11-13T19:41:01.030Z,10.21
2018-11-13T19:43:30.175Z,10.11
2018-11-13T19:45:59.417Z,10.12
2018-11-13T19:48:29.247Z,10.18
2018-11-13T19:50:58.683Z,10.25
2018-11-13T19:53:27.993Z,10.22
2018-11-13T19:55:57.187Z,10.28
2018-11-13T19:58:26.347Z,10.37
2018-11-13T20:00:55.637Z,10.40
2018-11-13T20:03:25.032Z,10.41
2018-11-13T20:05:54.220Z,10.36
2018-11-13T20:08:23.472Z,10.40
2018-11-13T20:10:54.231Z,10.39
2018-11-13T20:13:23.461Z,10.35
2018-11-13T20:15:52.913Z,10.39
2018-11-13T20:18:22.928Z,10.44
2018-11-13T20:20:52.429Z,10.45
2018-11-13T20:23:22.739Z,10.34
2018-11-13T20:25:52.757Z,10.41
2018-11-13T20:28:22.057Z,10.27
2018-11-13T20:30:51.272Z,10.32
2018-11-13T20:33:20.352Z,10.18
2018-11-13T20:35:50.173Z,10.25
2018-11-13T20:38:19.352Z,10.28
2018-11-13T20:40:48.352Z,10.21
2018-11-13T20:43:17.925Z,10.26
2018-11-13T20:45:46.966Z,10.33
2018-11-13T20:48:16.260Z,10.37
2018-11-13T20:50:45.416Z,10.40
2018-11-13T20:53:14.328Z,10.45
2018-11-13T20:55:43.477Z,10.50
2018-11-13T20:58:12.597Z,10.50
2018-11-13T21:00:41.842Z,10.48
2018-11-13T21:03:10.974Z,10.43
2018-11-13T21:05:40.408Z,10.48
2018-11-13T21:08:09.428Z,10.47
2018-11-13T21:10:40.228Z,10.43
2018-11-13T21:13:10.193Z,10.38
2018-11-13T21:15:39.444Z,10.32
2018-11-13T21:18:08.809Z,10.21
2018-11-13T21:20:37.924Z,10.11
2018-11-13T21:23:07.095Z,10.07
2018-11-13T21:25:36.314Z,10.10
2018-11-13T21:28:05.497Z,10.02
2018-11-13T21:30:34.875Z,10.17
2018-11-13T21:33:04.060Z,10.15
2018-11-13T21:35:33.256Z,10.13
2018-11-13T21:38:02.335Z,10.23
2018-11-13T21:40:31.520Z,10.24
2018-11-13T21:43:00.760Z,10.32
2018-11-13T21:45:29.908Z,10.38
2018-11-13T21:47:59.202Z,10.29
2018-11-13T21:50:29.271Z,10.18
2018-11-13T21:52:58.565Z,10.15
2018-11-13T21:55:29.117Z,10.03
2018-11-13T21:57:58.239Z,10.15
2018-11-13T22:00:31.824Z,10.04
2018-11-13T22:03:03.169Z,9.98
2018-11-13T22:05:33.459Z,10.04
2018-11-13T22:08:02.793Z,10.09
2018-11-13T22:10:32.159Z,10.14
2018-11-13T22:13:01.593Z,10.12
2018-11-13T22:15:31.430Z,10.14
2018-11-13T22:18:01.509Z,10.13
2018-11-13T22:20:30.120Z,9.91
2018-11-13T22:23:00.265Z,9.99
2018-11-13T22:25:29.519Z,10.12
2018-11-13T22:27:59.463Z,10.23
2018-11-13T22:30:29.940Z,10.15
2018-11-13T22:32:59.059Z,9.92
2018-11-13T22:35:28.323Z,9.89
2018-11-13T22:37:57.331Z,9.88
2018-11-13T22:40:27.827Z,9.91
2018-11-13T22:42:57.416Z,9.91
2018-11-13T22:45:27.664Z,9.87
2018-11-13T22:47:57.376Z,9.83
2018-11-13T22:50:30.638Z,9.80
2018-11-13T22:53:00.113Z,9.81
2018-11-13T22:55:29.314Z,9.92
2018-11-13T22:58:00.140Z,9.98
2018-11-13T23:00:41.601Z,9.91
2018-11-13T23:03:12.743Z,9.92
2018-11-13T23:05:42.547Z,9.95
2018-11-13T23:08:13.317Z,10.08
2018-11-13T23:10:42.580Z,10.08
2018-11-13T23:13:11.654Z,10.10
2018-11-13T23:15:41.054Z,10.08
2018-11-13T23:18:10.543Z,10.07
2018-11-13T23:20:39.594Z,10.12
2018-11-13T23:23:08.925Z,10.13
2018-11-13T23:25:37.964Z,10.15
2018-11-13T23:28:07.104Z,10.21
2018-11-13T23:30:36.405Z,10.19
2018-11-13T23:33:06.044Z,10.18
2018-11-13T23:35:35.071Z,10.21
2018-11-13T23:38:04.684Z,10.20
2018-11-13T23:40:33.833Z,10.18
2018-11-13T23:43:03.092Z,10.15
2018-11-13T23:45:32.359Z,10.14
2018-11-13T23:48:01.721Z,10.16
2018-11-13T23:50:30.565Z,10.15
2018-11-13T23:52:59.642Z,10.19
2018-11-13T23:55:28.728Z,10.14
2018-11-13T23:57:57.824Z,10.15
